ED234 LCEN-LCEN
Flight info
| Callsign | ED234 |
|---|---|
| Flight time | 0h 13m |
| Altitude | 3500 |
| Route | 351633N0331605E 352148N0325704E 350955N0325455E 350413N0321752E DCT PHA DCT AKR DCT LCA DCT 350043N0334242E 345809N0340403E 351335N0335411E 354006N0343444E 352003N0332205E DCT GKE |
| Aircraft | C172/L-SDFGR/C |
Departure
| Time | 2026-04-29 19:44 |
|---|---|
| Airport | Ercan International Airport (LCEN) |
Arrival
| Time | 2026-04-29 19:58 |
|---|---|
| Airport | Ercan International Airport (LCEN) |
| Time | Latitude | Longitude | Altitude | Speed | Heading |
|---|---|---|---|---|---|
| 2026-04-29 19:44 | 35.23656 | 33.77527 | 3607 ft | 387 kts | 56° |
| 2026-04-29 19:44 | 35.25503 | 33.76849 | 1832 ft | 443 kts | 271° |
| 2026-04-29 19:45 | 35.25640 | 33.72795 | 2407 ft | 503 kts | 271° |
| 2026-04-29 19:45 | 35.25770 | 33.68288 | 1669 ft | 554 kts | 272° |
| 2026-04-29 19:45 | 35.25857 | 33.63485 | 2000 ft | 570 kts | 271° |
| 2026-04-29 19:45 | 35.25900 | 33.58615 | 2133 ft | 579 kts | 271° |
| 2026-04-29 19:46 | 35.25980 | 33.53664 | 2411 ft | 579 kts | 271° |
| 2026-04-29 19:46 | 35.26097 | 33.48737 | 3073 ft | 575 kts | 272° |
| 2026-04-29 19:46 | 35.26460 | 33.43872 | 2855 ft | 587 kts | 278° |
| 2026-04-29 19:46 | 35.27710 | 33.39004 | 2647 ft | 633 kts | 293° |
| 2026-04-29 19:47 | 35.29884 | 33.34174 | 2540 ft | 648 kts | 300° |
| 2026-04-29 19:47 | 35.32596 | 33.29750 | 2278 ft | 647 kts | 311° |
| 2026-04-29 19:47 | 35.34940 | 33.25103 | 2953 ft | 669 kts | 285° |
| 2026-04-29 19:47 | 35.32931 | 33.20943 | 4762 ft | 623 kts | 168° |
| 2026-04-29 19:48 | 35.30053 | 33.24633 | 4681 ft | 660 kts | 104° |
| 2026-04-29 19:48 | 35.29468 | 33.28395 | 4603 ft | 690 kts | 98° |
| 2026-04-29 19:48 | 35.28825 | 33.36008 | 5477 ft | 580 kts | 103° |
| 2026-04-29 19:48 | 35.26747 | 33.39274 | 7453 ft | 505 kts | 174° |
| 2026-04-29 19:49 | 35.23062 | 33.38084 | 8700 ft | 620 kts | 219° |
| 2026-04-29 19:49 | 35.21307 | 33.33321 | 10778 ft | 655 kts | 252° |
| 2026-04-29 19:49 | 35.20217 | 33.27693 | 9396 ft | 728 kts | 260° |
| 2026-04-29 19:49 | 35.22732 | 33.24764 | 11853 ft | 598 kts | 356° |
| 2026-04-29 19:50 | 35.26970 | 33.25317 | 12288 ft | 613 kts | 23° |
| 2026-04-29 19:50 | 35.28521 | 33.28574 | 7529 ft | 541 kts | 99° |
| 2026-04-29 19:50 | 35.27607 | 33.33125 | 3957 ft | 536 kts | 73° |
| 2026-04-29 19:50 | 35.27276 | 33.37320 | 3045 ft | 475 kts | 106° |
| 2026-04-29 19:51 | 35.25090 | 33.39617 | 2119 ft | 417 kts | 164° |
| 2026-04-29 19:51 | 35.22371 | 33.40329 | 1836 ft | 383 kts | 169° |
| 2026-04-29 19:51 | 35.19946 | 33.40975 | 2113 ft | 336 kts | 168° |
| 2026-04-29 19:51 | 35.17616 | 33.41587 | 945 ft | 399 kts | 168° |
| 2026-04-29 19:52 | 35.15305 | 33.42937 | 1820 ft | 327 kts | 143° |
| 2026-04-29 19:52 | 35.13592 | 33.44408 | 2112 ft | 279 kts | 144° |
| 2026-04-29 19:52 | 35.12466 | 33.46092 | 1931 ft | 290 kts | 91° |
| 2026-04-29 19:52 | 35.13627 | 33.48689 | 2217 ft | 459 kts | 21° |
| 2026-04-29 19:53 | 35.15470 | 33.45705 | 1703 ft | 593 kts | 289° |
| 2026-04-29 19:53 | 35.17533 | 33.40850 | 1999 ft | 664 kts | 326° |
| 2026-04-29 19:53 | 35.19446 | 33.43398 | 1365 ft | 493 kts | 130° |
| 2026-04-29 19:53 | 35.17529 | 33.46410 | 1489 ft | 414 kts | 95° |
| 2026-04-29 19:54 | 35.17310 | 33.52371 | 1956 ft | 283 kts | 97° |
| 2026-04-29 19:54 | 35.16764 | 33.54401 | 1871 ft | 257 kts | 125° |
| 2026-04-29 19:54 | 35.15460 | 33.55890 | 1009 ft | 270 kts | 148° |
| 2026-04-29 19:55 | 35.14038 | 33.57071 | 1090 ft | 234 kts | 118° |
| 2026-04-29 19:55 | 35.13647 | 33.58969 | 590 ft | 285 kts | 86° |
| 2026-04-29 19:55 | 35.13613 | 33.61192 | 1311 ft | 231 kts | 109° |
| 2026-04-29 19:55 | 35.12425 | 33.61858 | 1222 ft | 238 kts | 221° |
| 2026-04-29 19:56 | 35.12397 | 33.59769 | 2019 ft | 284 kts | 283° |
| 2026-04-29 19:56 | 35.12881 | 33.57627 | 1543 ft | 258 kts | 293° |
| 2026-04-29 19:56 | 35.13652 | 33.55717 | 905 ft | 242 kts | 294° |
| 2026-04-29 19:56 | 35.14300 | 33.53934 | 610 ft | 220 kts | 291° |
| 2026-04-29 19:57 | 35.14837 | 33.52287 | 457 ft | 197 kts | 289° |
| 2026-04-29 19:57 | 35.15152 | 33.51281 | 407 ft | 181 kts | 290° |
| 2026-04-29 19:57 | 35.15791 | 33.49390 | 460 ft | 214 kts | 294° |
| 2026-04-29 19:57 | 35.16356 | 33.47944 | 657 ft | 159 kts | 295° |
| 2026-04-29 19:58 | 35.16456 | 33.47488 | 361 ft | 0 kts | 229° |
| 2026-04-29 19:58 | 35.23615 | 33.70446 | 155 ft | 0 kts | 91° |
| 2026-04-29 19:58 | 35.15070 | 33.51528 | 404 ft | 0 kts | 292° |
| 2026-04-29 19:59 | 35.15134 | 33.51320 | 404 ft | 53 kts | 297° |
| 2026-04-29 19:59 | 35.15325 | 33.50584 | 404 ft | 82 kts | 270° |
| 2026-04-29 19:59 | 35.15295 | 33.50149 | 404 ft | 57 kts | 263° |
| 2026-04-29 19:59 | 35.15231 | 33.49774 | 404 ft | 22 kts | 255° |
| 2026-04-29 20:00 | 35.15216 | 33.49675 | 404 ft | 7 kts | 264° |
| 2026-04-29 20:00 | 35.15212 | 33.49637 | 404 ft | 0 kts | 21° |
| 2026-04-29 20:00 | 35.15221 | 33.49604 | 404 ft | 4 kts | 291° |
| 2026-04-29 20:00 | 35.15222 | 33.49591 | 404 ft | 10 kts | 254° |
| 2026-04-29 20:01 | 35.15205 | 33.49572 | 404 ft | 2 kts | 191° |
| 2026-04-29 20:01 | 35.15146 | 33.49551 | 404 ft | 47 kts | 192° |